Time;durP1;ratioP1;P1;durP2;ratioP2;P2;SDS_P1;SDS_P2;PMS_P1;PMS_P2;Temp;Humidity;BMP_temperature;BMP_pressure;BME280_temperature;BME280_humidity;BME280_pressure;Samples;Min_cycle;Max_cycle;Signal;HPM_P1;HPM_P2
2022/03/26 00:01:16;;;;;;;28.33;17.57;;;;;;;;;;5052990;28;20785;-90
2022/03/26 00:03:43;;;;;;;25.27;15.17;;;;;;;;;;5068403;28;20236;-91
2022/03/26 00:06:12;;;;;;;28.13;16.80;;;;;;;;;;5065010;28;20213;-91
2022/03/26 00:08:39;;;;;;;28.87;16.70;;;;;;;;;;5039977;28;20207;-91
2022/03/26 00:11:06;;;;;;;28.23;16.10;;;;;;;;;;5060029;28;20221;-91
2022/03/26 00:13:34;;;;;;;29.33;18.90;;;;;;;;;;5068436;28;20269;-92
2022/03/26 00:16:02;;;;;;;27.07;16.67;;;;;;;;;;5047506;28;20299;-90
2022/03/26 00:18:31;;;;;;;24.83;15.50;;;;;;;;;;5063364;28;20205;-91
2022/03/26 00:20:58;;;;;;;25.27;15.67;;;;;;;;;;5050351;28;20206;-90
2022/03/26 00:23:26;;;;;;;22.33;14.90;;;;;;;;;;5043035;28;20205;-91
2022/03/26 00:25:55;;;;;;;28.47;16.43;;;;;;;;;;5064385;28;20615;-91
2022/03/26 00:28:22;;;;;;;28.50;17.13;;;;;;;;;;5049076;28;20206;-91
2022/03/26 00:30:49;;;;;;;24.57;15.73;;;;;;;;;;5033243;28;20218;-91
2022/03/26 00:33:16;;;;;;;31.57;18.23;;;;;;;;;;5047600;28;20275;-91
2022/03/26 00:35:46;;;;;;;27.83;17.97;;;;;;;;;;5064990;28;20273;-91
2022/03/26 00:38:13;;;;;;;30.30;17.60;;;;;;;;;;5068561;28;20224;-91
2022/03/26 00:40:41;;;;;;;24.30;15.20;;;;;;;;;;5045108;28;20209;-91
2022/03/26 00:43:09;;;;;;;24.10;14.80;;;;;;;;;;5043559;28;20205;-91
2022/03/26 00:45:36;;;;;;;27.03;17.37;;;;;;;;;;5067968;28;20755;-91
2022/03/26 00:48:06;;;;;;;22.87;14.87;;;;;;;;;;5041504;28;20222;-91
2022/03/26 00:50:34;;;;;;;25.77;16.37;;;;;;;;;;5054844;28;20205;-91
2022/03/26 00:53:02;;;;;;;28.17;16.33;;;;;;;;;;5048731;28;20292;-91
2022/03/26 00:55:30;;;;;;;24.57;16.23;;;;;;;;;;5048043;28;20276;-91
2022/03/26 00:57:57;;;;;;;30.37;17.57;;;;;;;;;;5039614;28;20203;-91
2022/03/26 01:00:26;;;;;;;30.00;16.77;;;;;;;;;;5050670;28;20306;-91
2022/03/26 01:02:54;;;;;;;28.13;16.60;;;;;;;;;;5057688;28;20223;-91
2022/03/26 01:05:21;;;;;;;26.80;16.80;;;;;;;;;;5068493;28;20229;-91
2022/03/26 01:07:48;;;;;;;22.83;15.10;;;;;;;;;;5048600;28;20457;-91
2022/03/26 01:10:17;;;;;;;26.90;18.47;;;;;;;;;;5054186;28;20205;-91
2022/03/26 01:12:45;;;;;;;28.37;16.17;;;;;;;;;;5047634;28;20743;-91
2022/03/26 01:15:12;;;;;;;26.70;16.53;;;;;;;;;;5048117;28;20240;-91
2022/03/26 01:17:39;;;;;;;24.43;15.90;;;;;;;;;;5041533;28;20731;-90
2022/03/26 01:20:08;;;;;;;28.87;17.73;;;;;;;;;;5051576;28;20249;-91
2022/03/26 01:22:35;;;;;;;27.87;17.63;;;;;;;;;;5048300;28;20297;-91
2022/03/26 01:25:02;;;;;;;25.27;15.57;;;;;;;;;;5047605;28;20230;-91
2022/03/26 01:27:31;;;;;;;29.27;17.43;;;;;;;;;;5044111;28;20618;-91
2022/03/26 01:29:58;;;;;;;29.37;17.47;;;;;;;;;;5064928;28;20262;-91
2022/03/26 01:32:25;;;;;;;21.70;14.33;;;;;;;;;;5048028;28;20730;-91
2022/03/26 01:34:53;;;;;;;26.47;15.73;;;;;;;;;;5036472;28;20288;-91
2022/03/26 01:37:20;;;;;;;26.40;15.10;;;;;;;;;;5053407;28;20381;-91
2022/03/26 01:39:47;;;;;;;21.57;14.10;;;;;;;;;;5047676;28;20198;-91
2022/03/26 01:42:14;;;;;;;27.63;16.63;;;;;;;;;;5050333;28;20324;-91
2022/03/26 01:44:43;;;;;;;29.87;17.93;;;;;;;;;;5042179;28;20279;-91
2022/03/26 01:47:11;;;;;;;25.40;16.40;;;;;;;;;;5059558;28;20205;-91
2022/03/26 01:49:38;;;;;;;25.20;14.03;;;;;;;;;;5068036;28;20660;-91
2022/03/26 01:52:10;;;;;;;27.20;16.03;;;;;;;;;;5056949;28;20214;-91
2022/03/26 01:54:37;;;;;;;27.37;17.20;;;;;;;;;;5051312;28;20309;-91
2022/03/26 01:57:05;;;;;;;26.17;16.60;;;;;;;;;;5071422;28;20205;-91
2022/03/26 01:59:34;;;;;;;25.53;16.40;;;;;;;;;;5071613;28;20205;-91
2022/03/26 02:02:02;;;;;;;25.90;15.67;;;;;;;;;;5038860;28;20216;-91
2022/03/26 02:04:30;;;;;;;20.77;13.77;;;;;;;;;;5044973;28;20238;-91
2022/03/26 02:06:57;;;;;;;23.37;14.53;;;;;;;;;;5051044;28;20259;-91
2022/03/26 02:09:24;;;;;;;24.53;14.93;;;;;;;;;;5048263;28;20214;-91
2022/03/26 02:11:51;;;;;;;25.53;15.37;;;;;;;;;;5052754;28;20702;-91
2022/03/26 02:14:19;;;;;;;25.03;16.37;;;;;;;;;;5065419;28;20737;-91
2022/03/26 02:16:46;;;;;;;25.73;16.13;;;;;;;;;;5051245;28;20244;-91
2022/03/26 02:19:15;;;;;;;29.47;15.80;;;;;;;;;;5047581;28;20217;-91
2022/03/26 02:21:47;;;;;;;24.97;16.67;;;;;;;;;;5049983;28;20209;-91
2022/03/26 02:24:15;;;;;;;27.83;15.67;;;;;;;;;;5058284;28;20226;-91
2022/03/26 02:26:42;;;;;;;27.93;16.93;;;;;;;;;;5044153;28;20730;-91
2022/03/26 02:29:10;;;;;;;25.40;16.37;;;;;;;;;;5058719;28;20714;-91
2022/03/26 02:31:38;;;;;;;27.00;15.90;;;;;;;;;;5066585;28;20201;-91
2022/03/26 02:34:06;;;;;;;21.97;14.03;;;;;;;;;;5054548;28;20338;-91
2022/03/26 02:36:34;;;;;;;20.43;12.07;;;;;;;;;;5060946;28;20201;-91
2022/03/26 02:39:03;;;;;;;28.40;15.70;;;;;;;;;;5052039;28;20202;-91
2022/03/26 02:41:31;;;;;;;25.20;14.70;;;;;;;;;;5050743;28;20444;-91
2022/03/26 02:43:58;;;;;;;26.43;15.73;;;;;;;;;;5040768;28;20242;-91
2022/03/26 02:46:25;;;;;;;26.00;15.37;;;;;;;;;;5062678;28;20213;-91
2022/03/26 02:48:53;;;;;;;22.97;14.40;;;;;;;;;;5052919;28;20206;-91
2022/03/26 02:51:20;;;;;;;26.13;15.17;;;;;;;;;;5041540;28;20626;-91
2022/03/26 02:53:47;;;;;;;25.80;14.60;;;;;;;;;;5059505;28;20232;-91
2022/03/26 02:56:16;;;;;;;27.83;16.70;;;;;;;;;;5062474;28;20243;-91
2022/03/26 02:58:43;;;;;;;27.97;15.07;;;;;;;;;;5070024;28;20209;-90
2022/03/26 03:01:10;;;;;;;24.27;14.90;;;;;;;;;;5048045;28;20733;-91
2022/03/26 03:03:38;;;;;;;23.17;13.00;;;;;;;;;;5057737;28;20221;-91
2022/03/26 03:06:05;;;;;;;26.77;15.03;;;;;;;;;;5050868;28;20260;-91
2022/03/26 03:08:33;;;;;;;28.23;17.43;;;;;;;;;;5039160;28;20214;-91
2022/03/26 03:11:00;;;;;;;27.57;15.60;;;;;;;;;;5047533;28;20224;-91
2022/03/26 03:13:29;;;;;;;26.30;15.80;;;;;;;;;;5049846;28;20218;-91
2022/03/26 03:15:58;;;;;;;24.97;15.43;;;;;;;;;;5048875;28;20206;-91
2022/03/26 03:18:25;;;;;;;25.50;15.93;;;;;;;;;;5051186;28;20680;-91
2022/03/26 03:20:53;;;;;;;25.10;14.63;;;;;;;;;;5051831;28;20210;-91
2022/03/26 03:23:20;;;;;;;31.10;18.10;;;;;;;;;;5047650;28;20213;-91
2022/03/26 03:25:47;;;;;;;22.97;14.70;;;;;;;;;;5042513;28;20763;-91
2022/03/26 03:28:15;;;;;;;28.27;15.17;;;;;;;;;;5061607;28;20571;-91
2022/03/26 03:30:43;;;;;;;20.97;13.13;;;;;;;;;;5069588;28;20205;-91
2022/03/26 03:33:11;;;;;;;25.40;13.67;;;;;;;;;;5047666;28;20742;-91
2022/03/26 03:35:39;;;;;;;22.00;13.10;;;;;;;;;;5056999;28;20230;-91
2022/03/26 03:38:06;;;;;;;21.67;14.23;;;;;;;;;;5049483;28;20255;-91
2022/03/26 03:40:34;;;;;;;21.30;14.10;;;;;;;;;;5049085;28;20213;-91
2022/03/26 03:43:01;;;;;;;25.13;14.40;;;;;;;;;;5040083;28;20207;-91
2022/03/26 03:45:29;;;;;;;23.53;13.67;;;;;;;;;;5052434;28;20401;-91
2022/03/26 03:47:57;;;;;;;28.33;13.97;;;;;;;;;;5067561;28;20212;-91
2022/03/26 03:50:25;;;;;;;28.30;15.23;;;;;;;;;;5067209;28;20217;-91
2022/03/26 03:52:53;;;;;;;28.90;15.20;;;;;;;;;;5039234;28;20301;-91
2022/03/26 03:55:21;;;;;;;26.90;15.23;;;;;;;;;;5063782;28;20601;-91
2022/03/26 03:57:48;;;;;;;20.17;13.23;;;;;;;;;;5037891;28;20217;-91
2022/03/26 04:00:16;;;;;;;18.77;12.73;;;;;;;;;;5048334;28;20206;-91
2022/03/26 04:02:44;;;;;;;20.73;14.57;;;;;;;;;;5048682;28;20214;-91
2022/03/26 04:05:13;;;;;;;19.10;12.20;;;;;;;;;;5042498;28;20225;-91
2022/03/26 04:07:41;;;;;;;22.40;13.07;;;;;;;;;;5053139;28;20241;-91
2022/03/26 04:10:09;;;;;;;22.27;14.13;;;;;;;;;;5057193;28;20212;-91
2022/03/26 04:12:36;;;;;;;29.77;14.40;;;;;;;;;;5049321;28;20208;-91
2022/03/26 04:15:04;;;;;;;20.00;12.90;;;;;;;;;;5037287;28;20279;-91
2022/03/26 04:17:32;;;;;;;23.47;13.13;;;;;;;;;;5050371;28;20274;-91
2022/03/26 04:19:59;;;;;;;24.43;13.90;;;;;;;;;;5068732;28;20228;-91
2022/03/26 04:22:28;;;;;;;20.13;14.17;;;;;;;;;;5062235;28;20217;-91
2022/03/26 04:24:55;;;;;;;24.87;14.77;;;;;;;;;;5046828;28;20248;-91
2022/03/26 04:27:23;;;;;;;23.23;14.13;;;;;;;;;;5068721;28;20258;-91
2022/03/26 04:29:50;;;;;;;27.03;15.20;;;;;;;;;;5068509;28;20292;-91
2022/03/26 04:32:17;;;;;;;20.67;13.43;;;;;;;;;;5048515;28;20288;-91
2022/03/26 04:34:45;;;;;;;24.87;14.53;;;;;;;;;;5055867;28;20275;-91
2022/03/26 04:37:12;;;;;;;25.03;13.43;;;;;;;;;;5056271;28;20201;-91
2022/03/26 04:39:41;;;;;;;21.20;13.43;;;;;;;;;;5048543;28;20214;-91
2022/03/26 04:42:09;;;;;;;24.07;14.47;;;;;;;;;;5045626;28;20202;-91
2022/03/26 04:44:37;;;;;;;21.67;12.43;;;;;;;;;;5054414;28;20311;-90
2022/03/26 04:47:04;;;;;;;21.13;13.70;;;;;;;;;;5049006;28;20210;-91
2022/03/26 04:49:31;;;;;;;25.07;14.83;;;;;;;;;;5045735;28;20752;-91
2022/03/26 04:51:59;;;;;;;23.87;14.43;;;;;;;;;;5047271;28;20275;-91
2022/03/26 04:54:27;;;;;;;23.87;14.17;;;;;;;;;;5061762;28;20282;-92
2022/03/26 04:56:55;;;;;;;18.80;12.13;;;;;;;;;;5068083;28;20205;-91
2022/03/26 04:59:23;;;;;;;22.90;12.43;;;;;;;;;;5051814;28;20243;-90
2022/03/26 05:01:50;;;;;;;25.07;13.97;;;;;;;;;;5049044;28;20210;-91
2022/03/26 05:04:17;;;;;;;22.60;13.90;;;;;;;;;;5067996;28;20282;-90
2022/03/26 05:06:45;;;;;;;24.63;14.00;;;;;;;;;;5043173;28;20230;-89
2022/03/26 05:09:12;;;;;;;25.10;13.90;;;;;;;;;;5045754;28;20262;-90
2022/03/26 05:11:40;;;;;;;25.13;13.27;;;;;;;;;;5045295;28;20206;-90
2022/03/26 05:14:09;;;;;;;22.77;13.67;;;;;;;;;;5048817;28;20228;-90
2022/03/26 05:16:37;;;;;;;23.37;13.97;;;;;;;;;;5052977;28;20210;-90
2022/03/26 05:19:04;;;;;;;19.67;13.13;;;;;;;;;;5064030;28;20202;-90
2022/03/26 05:21:31;;;;;;;22.63;13.50;;;;;;;;;;5052317;28;20488;-89
2022/03/26 05:23:59;;;;;;;23.97;14.03;;;;;;;;;;5063212;28;20229;-91
2022/03/26 05:26:26;;;;;;;25.33;14.50;;;;;;;;;;5070054;28;20208;-90
2022/03/26 05:28:53;;;;;;;19.93;13.57;;;;;;;;;;5055718;28;20267;-90
2022/03/26 05:31:22;;;;;;;21.57;14.63;;;;;;;;;;5051521;28;20810;-90
2022/03/26 05:33:49;;;;;;;22.27;13.87;;;;;;;;;;5046666;28;20242;-90
2022/03/26 05:36:17;;;;;;;21.97;13.47;;;;;;;;;;5055487;28;20232;-90
2022/03/26 05:38:44;;;;;;;21.50;14.07;;;;;;;;;;5055715;28;20267;-90
2022/03/26 05:41:11;;;;;;;23.83;15.07;;;;;;;;;;5055058;28;20224;-90
2022/03/26 05:43:38;;;;;;;24.40;14.23;;;;;;;;;;5059124;28;20296;-90
2022/03/26 05:46:06;;;;;;;22.33;14.20;;;;;;;;;;5074942;28;20206;-90
2022/03/26 05:48:35;;;;;;;21.30;12.73;;;;;;;;;;5075609;28;20209;-90
2022/03/26 05:51:02;;;;;;;21.83;12.50;;;;;;;;;;5055243;28;20210;-91
2022/03/26 05:53:29;;;;;;;19.83;12.53;;;;;;;;;;5055456;28;20259;-89
2022/03/26 05:55:57;;;;;;;20.27;12.53;;;;;;;;;;5057350;28;20225;-90
2022/03/26 05:58:25;;;;;;;24.50;13.83;;;;;;;;;;5046097;28;20209;-90
2022/03/26 06:00:52;;;;;;;25.13;13.73;;;;;;;;;;5066346;28;20213;-90
2022/03/26 06:03:20;;;;;;;21.33;13.47;;;;;;;;;;5062734;28;20202;-90
2022/03/26 06:05:48;;;;;;;24.70;14.80;;;;;;;;;;5056113;28;20221;-89
2022/03/26 06:08:16;;;;;;;25.93;14.83;;;;;;;;;;5048685;28;20210;-90
2022/03/26 06:10:43;;;;;;;24.37;14.47;;;;;;;;;;5075633;28;20209;-91
2022/03/26 06:13:10;;;;;;;22.93;14.60;;;;;;;;;;5067689;28;20645;-91
2022/03/26 06:15:38;;;;;;;22.23;13.80;;;;;;;;;;5038459;28;20245;-90
2022/03/26 06:18:05;;;;;;;22.77;14.40;;;;;;;;;;5048237;28;20371;-91
2022/03/26 06:20:33;;;;;;;20.90;14.13;;;;;;;;;;5068592;28;20213;-90
2022/03/26 06:23:02;;;;;;;24.53;14.83;;;;;;;;;;5061219;28;20210;-90
2022/03/26 06:25:30;;;;;;;23.10;14.30;;;;;;;;;;5051049;28;20557;-90
2022/03/26 06:27:57;;;;;;;22.30;15.03;;;;;;;;;;5062763;28;20262;-89
2022/03/26 06:30:24;;;;;;;23.33;14.47;;;;;;;;;;5069195;28;20217;-90
2022/03/26 06:32:52;;;;;;;24.97;14.93;;;;;;;;;;5077024;28;20236;-90
2022/03/26 06:35:20;;;;;;;23.97;14.77;;;;;;;;;;5061655;28;20230;-90
2022/03/26 06:37:47;;;;;;;23.50;15.43;;;;;;;;;;5050944;28;20627;-90
2022/03/26 06:40:16;;;;;;;23.67;15.67;;;;;;;;;;5071926;28;20208;-90
2022/03/26 06:42:43;;;;;;;24.17;14.83;;;;;;;;;;5052172;28;20206;-90
2022/03/26 06:45:11;;;;;;;25.33;15.37;;;;;;;;;;5040805;28;20226;-91
2022/03/26 06:47:38;;;;;;;26.97;15.73;;;;;;;;;;5058401;28;20257;-91
2022/03/26 06:50:06;;;;;;;25.43;16.30;;;;;;;;;;5045686;28;20205;-90
2022/03/26 06:52:33;;;;;;;26.97;15.77;;;;;;;;;;5041442;28;20232;-90
2022/03/26 06:55:02;;;;;;;27.13;16.20;;;;;;;;;;5048526;28;20257;-90
2022/03/26 06:57:31;;;;;;;27.57;16.47;;;;;;;;;;5050113;28;20206;-90
2022/03/26 06:59:58;;;;;;;22.57;15.97;;;;;;;;;;5051954;28;20210;-89
2022/03/26 07:02:25;;;;;;;23.90;16.23;;;;;;;;;;5040056;28;20250;-90
2022/03/26 07:04:53;;;;;;;27.03;16.70;;;;;;;;;;5046658;28;20226;-90
2022/03/26 07:07:22;;;;;;;22.70;15.47;;;;;;;;;;5047997;28;20589;-90
2022/03/26 07:09:49;;;;;;;27.57;16.27;;;;;;;;;;5042947;28;20195;-91
2022/03/26 07:12:16;;;;;;;27.93;17.50;;;;;;;;;;5039620;28;20216;-90
2022/03/26 07:14:45;;;;;;;25.20;16.77;;;;;;;;;;5044482;28;20276;-90
2022/03/26 07:17:12;;;;;;;25.67;16.67;;;;;;;;;;5044582;28;20229;-90
2022/03/26 07:19:40;;;;;;;26.87;16.63;;;;;;;;;;5052393;28;20208;-91
2022/03/26 07:22:07;;;;;;;26.30;17.57;;;;;;;;;;5046084;28;20202;-90
2022/03/26 07:24:35;;;;;;;24.33;16.97;;;;;;;;;;5040605;28;20222;-90
2022/03/26 07:27:04;;;;;;;25.20;16.20;;;;;;;;;;5050234;28;20209;-90
2022/03/26 07:29:35;;;;;;;23.80;16.20;;;;;;;;;;5048561;28;20267;-90
2022/03/26 07:32:04;;;;;;;30.00;16.53;;;;;;;;;;5045835;28;20198;-90
2022/03/26 07:34:50;;;;;;;24.30;16.80;;;;;;;;;;5049555;28;20260;-90
2022/03/26 07:37:17;;;;;;;32.73;16.77;;;;;;;;;;5054331;28;20240;-90
2022/03/26 07:39:44;;;;;;;25.30;17.23;;;;;;;;;;5052885;28;20241;-90
2022/03/26 07:42:12;;;;;;;24.67;17.27;;;;;;;;;;5046967;28;20201;-90
2022/03/26 07:44:42;;;;;;;26.23;16.67;;;;;;;;;;5057531;28;20224;-90
2022/03/26 07:47:11;;;;;;;23.53;16.57;;;;;;;;;;5044379;28;20595;-90
2022/03/26 07:49:38;;;;;;;24.83;16.77;;;;;;;;;;5052928;28;20214;-90
2022/03/26 07:52:06;;;;;;;29.47;18.47;;;;;;;;;;5052573;28;20210;-90
2022/03/26 07:54:33;;;;;;;24.80;17.13;;;;;;;;;;5062187;28;20635;-90
2022/03/26 07:57:00;;;;;;;25.30;17.50;;;;;;;;;;5072619;28;20205;-90
2022/03/26 07:59:28;;;;;;;27.97;16.87;;;;;;;;;;5072985;28;20250;-90
2022/03/26 08:01:55;;;;;;;27.40;18.00;;;;;;;;;;5053549;28;20721;-90
2022/03/26 08:04:24;;;;;;;26.93;17.07;;;;;;;;;;5049110;28;20272;-89
2022/03/26 08:06:51;;;;;;;28.00;17.17;;;;;;;;;;5070267;28;20200;-90
2022/03/26 08:09:18;;;;;;;30.40;16.43;;;;;;;;;;5067322;28;20300;-89
2022/03/26 08:11:46;;;;;;;29.40;18.00;;;;;;;;;;5052468;28;20236;-89
2022/03/26 08:14:13;;;;;;;25.40;17.07;;;;;;;;;;5064194;28;20217;-90
2022/03/26 08:16:41;;;;;;;28.17;18.30;;;;;;;;;;5072149;28;20256;-90
2022/03/26 08:19:08;;;;;;;26.50;17.47;;;;;;;;;;5059159;28;20206;-89
2022/03/26 08:21:37;;;;;;;26.77;16.93;;;;;;;;;;5055051;28;20237;-90
2022/03/26 08:24:04;;;;;;;27.20;16.73;;;;;;;;;;5063292;28;20221;-89
2022/03/26 08:26:32;;;;;;;28.90;17.23;;;;;;;;;;5072140;28;20205;-90
2022/03/26 08:29:00;;;;;;;29.70;17.17;;;;;;;;;;5050203;28;20718;-90
2022/03/26 08:31:28;;;;;;;33.93;17.67;;;;;;;;;;5060605;28;20200;-90
2022/03/26 08:33:56;;;;;;;29.83;18.13;;;;;;;;;;5071519;28;20298;-90
2022/03/26 08:36:24;;;;;;;27.70;17.80;;;;;;;;;;5062997;28;20268;-89
2022/03/26 08:38:52;;;;;;;27.87;17.63;;;;;;;;;;5046529;28;20284;-91
2022/03/26 08:41:20;;;;;;;26.27;17.33;;;;;;;;;;5051581;28;20237;-91
2022/03/26 08:43:49;;;;;;;30.97;17.83;;;;;;;;;;5051698;28;20761;-90
2022/03/26 08:46:17;;;;;;;28.63;17.43;;;;;;;;;;5048380;28;20292;-89
2022/03/26 08:48:44;;;;;;;33.03;18.23;;;;;;;;;;5063097;28;20279;-89
2022/03/26 08:51:19;;;;;;;29.17;16.90;;;;;;;;;;5028473;28;20302;-89
2022/03/26 08:53:46;;;;;;;34.87;19.10;;;;;;;;;;5063915;28;20224;-89
2022/03/26 08:56:15;;;;;;;33.30;19.27;;;;;;;;;;5028771;28;20242;-89
2022/03/26 08:58:42;;;;;;;31.80;18.80;;;;;;;;;;5045071;28;20307;-89
2022/03/26 09:01:11;;;;;;;30.13;18.00;;;;;;;;;;5028216;28;20268;-89
2022/03/26 09:03:40;;;;;;;32.10;18.40;;;;;;;;;;5027525;28;20234;-89
2022/03/26 09:06:08;;;;;;;35.53;18.83;;;;;;;;;;5051140;28;20217;-89
2022/03/26 09:08:35;;;;;;;30.50;19.03;;;;;;;;;;5059816;28;20213;-89
2022/03/26 09:11:04;;;;;;;35.27;17.43;;;;;;;;;;5067873;28;20271;-89
2022/03/26 09:13:33;;;;;;;31.73;15.87;;;;;;;;;;5043107;28;20210;-89
2022/03/26 09:16:00;;;;;;;31.70;19.13;;;;;;;;;;5052090;28;20223;-89
2022/03/26 09:18:28;;;;;;;37.77;20.50;;;;;;;;;;5071098;28;20205;-89
2022/03/26 09:20:56;;;;;;;35.27;18.27;;;;;;;;;;5072030;28;20212;-89
2022/03/26 09:23:23;;;;;;;30.17;16.70;;;;;;;;;;5055444;28;20206;-89
2022/03/26 09:25:50;;;;;;;32.13;18.43;;;;;;;;;;5059943;28;20227;-89
2022/03/26 09:28:18;;;;;;;30.37;17.53;;;;;;;;;;5071749;28;20266;-89
2022/03/26 09:30:47;;;;;;;29.90;18.40;;;;;;;;;;5070366;28;20205;-88
2022/03/26 09:33:14;;;;;;;31.93;18.43;;;;;;;;;;5036250;28;20661;-89
2022/03/26 09:35:42;;;;;;;32.53;18.77;;;;;;;;;;5051099;28;20665;-89
2022/03/26 09:38:09;;;;;;;29.87;17.90;;;;;;;;;;5071782;28;20259;-89
2022/03/26 09:40:36;;;;;;;30.23;18.03;;;;;;;;;;5069015;28;20205;-88
2022/03/26 09:43:04;;;;;;;31.33;18.37;;;;;;;;;;5043437;28;20276;-89
2022/03/26 09:45:31;;;;;;;27.37;17.37;;;;;;;;;;5065654;28;20278;-89
2022/03/26 09:48:00;;;;;;;32.93;19.40;;;;;;;;;;5071653;28;20293;-88
2022/03/26 09:50:27;;;;;;;31.67;17.80;;;;;;;;;;5047194;28;20283;-89
2022/03/26 09:52:57;;;;;;;29.80;17.77;;;;;;;;;;5052386;28;20256;-89
2022/03/26 09:55:25;;;;;;;28.67;14.80;;;;;;;;;;5071504;28;20228;-88
2022/03/26 09:57:52;;;;;;;31.17;17.27;;;;;;;;;;5056299;28;20260;-89
2022/03/26 10:00:20;;;;;;;31.70;19.23;;;;;;;;;;5043087;28;20232;-89
2022/03/26 10:02:47;;;;;;;33.33;18.87;;;;;;;;;;5068742;28;20232;-89
2022/03/26 10:05:20;;;;;;;30.10;16.27;;;;;;;;;;5062107;28;20233;-89
2022/03/26 10:07:50;;;;;;;29.70;17.53;;;;;;;;;;5064476;28;20255;-89
2022/03/26 10:10:24;;;;;;;28.30;18.10;;;;;;;;;;5067709;28;20568;-89
2022/03/26 10:12:52;;;;;;;32.47;18.83;;;;;;;;;;5074504;28;20298;-89
2022/03/26 10:15:19;;;;;;;29.93;17.93;;;;;;;;;;5053782;28;20236;-89
2022/03/26 10:17:47;;;;;;;34.97;19.23;;;;;;;;;;5062930;28;20242;-89
2022/03/26 10:20:15;;;;;;;37.43;17.80;;;;;;;;;;5054759;28;20212;-91
2022/03/26 10:22:45;;;;;;;25.80;14.90;;;;;;;;;;5051817;28;20206;-89
2022/03/26 10:25:13;;;;;;;30.53;18.27;;;;;;;;;;5054061;28;20232;-89
2022/03/26 10:27:42;;;;;;;33.10;19.50;;;;;;;;;;5054455;28;20202;-89
2022/03/26 10:30:10;;;;;;;30.93;18.67;;;;;;;;;;5045067;28;20255;-88
2022/03/26 10:32:41;;;;;;;29.40;18.43;;;;;;;;;;5053834;28;20670;-89
2022/03/26 10:35:16;;;;;;;29.47;17.80;;;;;;;;;;5065773;28;20308;-89
2022/03/26 10:37:46;;;;;;;31.87;18.93;;;;;;;;;;5059461;28;20561;-89
2022/03/26 10:40:17;;;;;;;34.23;19.07;;;;;;;;;;5046578;28;20288;-89
2022/03/26 10:42:44;;;;;;;33.50;18.30;;;;;;;;;;5053831;28;20209;-90
2022/03/26 10:45:15;;;;;;;37.47;19.83;;;;;;;;;;5046340;28;20255;-89
2022/03/26 10:47:42;;;;;;;34.20;19.87;;;;;;;;;;5054038;28;20221;-89
2022/03/26 10:50:09;;;;;;;40.37;20.03;;;;;;;;;;5044196;28;20201;-88
2022/03/26 10:52:37;;;;;;;31.33;17.13;;;;;;;;;;5045215;28;20203;-90
2022/03/26 10:55:13;;;;;;;32.53;18.70;;;;;;;;;;5044395;28;20237;-89
2022/03/26 10:57:41;;;;;;;32.70;18.03;;;;;;;;;;5050934;28;20223;-89
2022/03/26 11:00:10;;;;;;;33.17;18.10;;;;;;;;;;5054543;28;20213;-89
2022/03/26 11:02:37;;;;;;;29.00;18.00;;;;;;;;;;5050867;28;20266;-89
2022/03/26 11:05:05;;;;;;;29.77;16.40;;;;;;;;;;5062462;28;20239;-89
2022/03/26 11:07:32;;;;;;;30.70;17.40;;;;;;;;;;5069215;28;20201;-89
2022/03/26 11:10:00;;;;;;;29.67;17.20;;;;;;;;;;5074002;28;20337;-89
2022/03/26 11:12:29;;;;;;;33.27;17.03;;;;;;;;;;5060727;28;20216;-88
2022/03/26 11:14:56;;;;;;;31.67;18.80;;;;;;;;;;5059074;28;20233;-90
2022/03/26 11:17:30;;;;;;;32.70;17.97;;;;;;;;;;5066701;28;20688;-89
2022/03/26 11:20:06;;;;;;;30.13;18.63;;;;;;;;;;5073684;28;20694;-89
2022/03/26 11:22:40;;;;;;;33.27;18.90;;;;;;;;;;5057392;28;20218;-89
2022/03/26 11:25:18;;;;;;;33.47;19.80;;;;;;;;;;5061059;28;20275;-89
2022/03/26 11:28:01;;;;;;;31.77;18.50;;;;;;;;;;5061841;28;20197;-90
2022/03/26 11:30:34;;;;;;;31.27;20.77;;;;;;;;;;5050626;28;20208;-89
2022/03/26 11:33:10;;;;;;;33.53;17.53;;;;;;;;;;5046425;28;20264;-88
2022/03/26 11:35:50;;;;;;;27.57;16.20;;;;;;;;;;5056307;28;20229;-88
2022/03/26 11:38:17;;;;;;;32.63;18.60;;;;;;;;;;5029717;28;20205;-88
2022/03/26 11:40:46;;;;;;;28.30;16.43;;;;;;;;;;5034388;28;20222;-88
2022/03/26 11:43:17;;;;;;;32.03;16.33;;;;;;;;;;5051108;28;20613;-89
2022/03/26 11:51:22;;;;;;;26.27;16.43;;;;;;;;;;5055110;28;20248;-90
2022/03/26 11:53:52;;;;;;;31.50;15.73;;;;;;;;;;5043674;28;20233;-88
2022/03/26 11:56:23;;;;;;;33.17;17.53;;;;;;;;;;5072680;28;20236;-90
2022/03/26 11:59:28;;;;;;;30.37;17.73;;;;;;;;;;5069200;28;20659;-89
2022/03/26 12:01:56;;;;;;;29.50;15.33;;;;;;;;;;5037470;28;20214;-90
2022/03/26 12:04:27;;;;;;;29.93;17.30;;;;;;;;;;5053345;28;20233;-90
2022/03/26 12:06:56;;;;;;;30.77;16.30;;;;;;;;;;5070892;28;20198;-89
2022/03/26 12:09:31;;;;;;;38.27;23.10;;;;;;;;;;5049465;28;20239;-90
2022/03/26 12:12:15;;;;;;;34.97;20.10;;;;;;;;;;5046605;28;20659;-88
2022/03/26 12:14:57;;;;;;;32.00;20.00;;;;;;;;;;5068916;28;20709;-89
2022/03/26 12:17:39;;;;;;;30.43;18.17;;;;;;;;;;5042212;28;20254;-88
2022/03/26 12:20:20;;;;;;;26.50;15.40;;;;;;;;;;5028410;28;20431;-89
2022/03/26 12:22:50;;;;;;;28.10;15.60;;;;;;;;;;5047141;28;20272;-90
2022/03/26 12:25:18;;;;;;;26.47;15.90;;;;;;;;;;5068720;28;20221;-90
2022/03/26 12:27:45;;;;;;;25.87;15.03;;;;;;;;;;5068833;28;20219;-89
2022/03/26 12:30:14;;;;;;;24.90;13.60;;;;;;;;;;5044692;28;20268;-90
2022/03/26 12:32:43;;;;;;;24.47;14.23;;;;;;;;;;5037275;28;20234;-89
2022/03/26 12:35:10;;;;;;;20.57;12.77;;;;;;;;;;5048237;28;20237;-90
2022/03/26 12:37:39;;;;;;;33.67;17.53;;;;;;;;;;5044651;28;20222;-90
2022/03/26 12:40:09;;;;;;;14.93;6.97;;;;;;;;;;5043195;28;20213;-90
2022/03/26 12:42:36;;;;;;;25.70;15.07;;;;;;;;;;5067371;28;20201;-89
2022/03/26 12:45:23;;;;;;;21.63;13.13;;;;;;;;;;5057240;28;20280;-90
2022/03/26 12:47:50;;;;;;;23.13;13.60;;;;;;;;;;5044510;28;20264;-90
2022/03/26 12:50:22;;;;;;;26.20;14.57;;;;;;;;;;5043596;28;20287;-90
2022/03/26 12:52:51;;;;;;;25.87;15.37;;;;;;;;;;5071465;28;20230;-91
2022/03/26 12:55:18;;;;;;;21.47;12.60;;;;;;;;;;5071450;28;20234;-90
2022/03/26 13:00:31;;;;;;;47.80;25.87;;;;;;;;;;5040138;28;20197;-90
2022/03/26 13:03:05;;;;;;;35.07;24.00;;;;;;;;;;5050900;28;20198;-90
2022/03/26 13:05:34;;;;;;;28.07;16.03;;;;;;;;;;5051704;28;20229;-89
2022/03/26 13:08:03;;;;;;;38.30;24.37;;;;;;;;;;5048483;28;20234;-90
2022/03/26 13:10:34;;;;;;;26.30;15.83;;;;;;;;;;5064614;28;20675;-90
2022/03/26 13:13:01;;;;;;;22.40;14.43;;;;;;;;;;5050780;28;20206;-91
2022/03/26 13:15:29;;;;;;;23.67;12.90;;;;;;;;;;5049959;28;20233;-90
2022/03/26 13:18:01;;;;;;;22.63;14.27;;;;;;;;;;5043395;28;20229;-90
2022/03/26 13:20:29;;;;;;;21.53;13.50;;;;;;;;;;5057158;28;20221;-90
2022/03/26 13:23:02;;;;;;;22.03;12.03;;;;;;;;;;5048337;28;20217;-90
2022/03/26 13:25:35;;;;;;;25.70;14.53;;;;;;;;;;5040267;28;20226;-90
2022/03/26 13:28:18;;;;;;;21.27;12.50;;;;;;;;;;5048750;28;20194;-90
2022/03/26 13:30:48;;;;;;;21.67;13.47;;;;;;;;;;5050972;28;20217;-90
2022/03/26 13:33:19;;;;;;;22.80;12.93;;;;;;;;;;5038987;28;20568;-89
2022/03/26 13:35:50;;;;;;;24.00;13.03;;;;;;;;;;5039882;28;20237;-88
2022/03/26 13:38:17;;;;;;;22.17;12.97;;;;;;;;;;5074528;28;20586;-89
2022/03/26 13:40:47;;;;;;;20.77;13.53;;;;;;;;;;5074909;28;20208;-89
2022/03/26 13:43:14;;;;;;;20.63;12.27;;;;;;;;;;5042083;28;20300;-89
2022/03/26 13:45:43;;;;;;;26.07;13.80;;;;;;;;;;5057987;28;20232;-89
2022/03/26 13:48:11;;;;;;;18.00;11.60;;;;;;;;;;5075251;28;20289;-88
2022/03/26 13:50:39;;;;;;;20.00;13.17;;;;;;;;;;5073287;28;20667;-89
2022/03/26 13:53:17;;;;;;;23.67;14.20;;;;;;;;;;5050048;28;20205;-89
2022/03/26 13:55:49;;;;;;;23.30;13.77;;;;;;;;;;5070431;28;20221;-89
2022/03/26 13:58:22;;;;;;;21.27;12.93;;;;;;;;;;5049413;28;20250;-88
2022/03/26 14:00:50;;;;;;;23.23;12.40;;;;;;;;;;5050893;28;20238;-89
2022/03/26 14:03:25;;;;;;;18.60;11.27;;;;;;;;;;5056461;28;20317;-89
2022/03/26 14:05:52;;;;;;;23.73;13.17;;;;;;;;;;5062645;28;20312;-89
2022/03/26 14:08:19;;;;;;;23.13;13.60;;;;;;;;;;5055103;28;20206;-88
2022/03/26 14:10:47;;;;;;;20.07;11.97;;;;;;;;;;5049514;28;20276;-89
2022/03/26 14:13:17;;;;;;;21.40;12.33;;;;;;;;;;5062655;28;20220;-88
2022/03/26 14:15:49;;;;;;;23.37;12.40;;;;;;;;;;5057966;28;20218;-89
2022/03/26 14:18:17;;;;;;;20.90;12.53;;;;;;;;;;5054905;28;20226;-89
2022/03/26 14:20:44;;;;;;;15.43;7.73;;;;;;;;;;5055921;28;20208;-89
2022/03/26 14:23:11;;;;;;;20.70;11.43;;;;;;;;;;5054547;28;20202;-89
2022/03/26 14:25:39;;;;;;;20.27;11.90;;;;;;;;;;5069882;28;20225;-89
2022/03/26 14:28:08;;;;;;;21.57;12.90;;;;;;;;;;5074646;28;20213;-89
2022/03/26 14:30:45;;;;;;;19.67;10.90;;;;;;;;;;5042851;28;20264;-89
2022/03/26 14:33:13;;;;;;;17.83;10.57;;;;;;;;;;5043124;28;20248;-89